createdAt,value
2023-04-02T00:01:38.601Z,3.73
2023-04-02T00:04:22.197Z,4.20
2023-04-02T00:07:30.860Z,4.00
2023-04-02T00:09:58.257Z,4.53
2023-04-02T00:12:25.696Z,4.23
2023-04-02T00:14:58.136Z,3.70
2023-04-02T00:17:25.791Z,3.50
2023-04-02T00:20:06.855Z,4.67
2023-04-02T00:22:34.232Z,4.27
2023-04-02T00:25:11.367Z,3.13
2023-04-02T00:27:38.535Z,3.57
2023-04-02T00:30:08.804Z,3.10
2023-04-02T00:32:36.816Z,3.37
2023-04-02T00:35:05.216Z,3.43
2023-04-02T00:37:42.249Z,3.20
2023-04-02T00:40:19.376Z,2.97
2023-04-02T00:42:49.010Z,3.10
2023-04-02T00:45:29.373Z,3.17
2023-04-02T00:48:00.515Z,3.27
2023-04-02T00:50:36.736Z,3.03
2023-04-02T00:53:19.264Z,3.43
2023-04-02T00:55:46.619Z,3.03
2023-04-02T00:58:27.921Z,3.43
2023-04-02T01:00:55.413Z,3.23
2023-04-02T01:03:23.738Z,3.70
2023-04-02T01:06:01.720Z,3.40
2023-04-02T01:09:29.156Z,4.17
2023-04-02T01:12:36.747Z,4.27
2023-04-02T01:15:41.396Z,4.23
2023-04-02T01:18:31.490Z,4.77
2023-04-02T01:21:21.876Z,4.57
2023-04-02T01:24:15.976Z,3.90
2023-04-02T01:26:58.196Z,5.47
2023-04-02T01:29:41.841Z,5.10
2023-04-02T01:32:16.688Z,4.87
2023-04-02T01:34:47.214Z,5.23
2023-04-02T01:37:39.337Z,4.40
2023-04-02T01:40:22.343Z,5.00
2023-04-02T01:43:23.297Z,4.97
2023-04-02T01:45:50.676Z,4.60
2023-04-02T01:48:30.106Z,4.03
2023-04-02T01:50:59.927Z,4.83
2023-04-02T01:53:31.233Z,4.57
2023-04-02T01:56:04.832Z,3.57
2023-04-02T01:58:33.651Z,3.80
2023-04-02T02:01:18.518Z,4.30
2023-04-02T02:03:47.081Z,4.23
2023-04-02T02:06:17.136Z,4.63
2023-04-02T02:08:56.569Z,4.93
2023-04-02T02:11:29.422Z,3.63
2023-04-02T02:14:27.887Z,3.90
2023-04-02T02:16:58.218Z,3.23
2023-04-02T02:19:49.608Z,3.00
2023-04-02T02:22:31.624Z,4.20
2023-04-02T02:25:02.559Z,3.47
2023-04-02T02:27:49.952Z,4.03
2023-04-02T02:30:51.089Z,3.53
2023-04-02T02:33:26.439Z,3.03
2023-04-02T02:36:05.191Z,2.90
2023-04-02T02:38:54.204Z,2.70
2023-04-02T02:42:06.429Z,2.73
2023-04-02T02:44:36.977Z,2.80
2023-04-02T02:47:22.058Z,2.23
2023-04-02T02:49:59.066Z,2.70
2023-04-02T02:52:38.837Z,2.37
2023-04-02T02:55:18.661Z,2.17
2023-04-02T02:58:06.966Z,3.00
2023-04-02T03:00:42.438Z,2.30
2023-04-02T03:03:18.045Z,2.17
2023-04-02T03:05:56.493Z,1.87
2023-04-02T03:08:34.112Z,1.80
2023-04-02T03:11:38.762Z,1.80
2023-04-02T03:14:32.457Z,2.87
2023-04-02T03:17:12.909Z,1.93
2023-04-02T03:19:51.179Z,2.83
2023-04-02T03:22:27.762Z,1.77
2023-04-02T03:24:57.692Z,2.13
2023-04-02T03:27:36.566Z,1.50
2023-04-02T03:30:42.485Z,2.00
2023-04-02T03:33:22.180Z,1.20
2023-04-02T03:36:25.763Z,1.30
2023-04-02T03:39:15.578Z,1.20
2023-04-02T03:42:00.066Z,1.17
2023-04-02T03:44:52.741Z,1.17
2023-04-02T03:47:48.000Z,1.20
2023-04-02T03:50:33.212Z,1.00
2023-04-02T03:53:05.758Z,1.00
2023-04-02T03:55:38.182Z,1.40
2023-04-02T03:58:22.193Z,1.40
2023-04-02T04:00:55.362Z,1.40
2023-04-02T04:03:50.065Z,1.50
2023-04-02T04:06:31.692Z,1.23
2023-04-02T04:09:30.259Z,1.57
2023-04-02T04:12:33.059Z,1.30
2023-04-02T04:15:15.405Z,1.30
2023-04-02T04:18:12.511Z,1.30
2023-04-02T04:20:56.933Z,1.27
2023-04-02T04:23:33.088Z,1.97
2023-04-02T04:26:12.218Z,1.80
2023-04-02T04:29:12.510Z,1.80
2023-04-02T04:31:49.784Z,2.07
2023-04-02T04:34:46.706Z,2.70
2023-04-02T04:37:25.319Z,3.10
2023-04-02T04:40:14.110Z,4.23
2023-04-02T04:42:44.282Z,4.10
2023-04-02T04:45:35.130Z,4.30
2023-04-02T04:48:26.866Z,3.63
2023-04-02T04:51:04.286Z,3.33
2023-04-02T04:53:31.913Z,3.33
2023-04-02T04:56:18.112Z,3.50
2023-04-02T04:58:59.619Z,3.20
2023-04-02T05:02:11.724Z,3.50
2023-04-02T05:04:43.470Z,3.53
2023-04-02T05:07:30.620Z,4.60
2023-04-02T05:10:11.853Z,3.20
2023-04-02T05:13:05.739Z,3.60
2023-04-02T05:15:49.767Z,3.30
2023-04-02T05:18:36.657Z,3.70
2023-04-02T05:21:25.082Z,3.40
2023-04-02T05:24:33.869Z,3.13
2023-04-02T05:27:23.895Z,3.93
2023-04-02T05:30:24.293Z,3.53
2023-04-02T05:33:07.969Z,4.40
2023-04-02T05:35:42.187Z,3.67
2023-04-02T05:38:25.432Z,4.60
2023-04-02T05:41:02.288Z,5.00
2023-04-02T05:43:34.825Z,5.67
2023-04-02T05:46:18.509Z,5.50
2023-04-02T05:48:58.057Z,5.07
2023-04-02T05:51:39.871Z,5.10
2023-04-02T05:54:26.190Z,5.07
2023-04-02T05:57:09.504Z,4.07
2023-04-02T05:59:51.312Z,4.33
2023-04-02T06:02:53.713Z,3.73
2023-04-02T06:05:29.852Z,5.47
2023-04-02T06:08:32.634Z,4.60
2023-04-02T06:11:09.841Z,5.00
2023-04-02T06:13:38.999Z,6.43
2023-04-02T06:16:07.871Z,4.50
2023-04-02T06:18:37.106Z,5.13
2023-04-02T06:21:05.664Z,4.30
2023-04-02T06:23:41.551Z,4.67
2023-04-02T06:26:27.931Z,5.20
2023-04-02T06:29:12.356Z,7.53
2023-04-02T06:31:52.439Z,5.80
2023-04-02T06:34:25.155Z,5.70
2023-04-02T06:37:15.770Z,5.03
2023-04-02T06:39:44.002Z,4.90
2023-04-02T06:42:24.358Z,4.90
2023-04-02T06:45:22.563Z,3.90
2023-04-02T06:48:19.488Z,4.70
2023-04-02T06:51:07.861Z,3.43
2023-04-02T06:53:39.089Z,3.23
2023-04-02T06:56:45.606Z,2.20
2023-04-02T06:59:17.142Z,2.87
2023-04-02T07:01:49.681Z,2.57
2023-04-02T07:04:18.969Z,2.87
2023-04-02T07:06:48.142Z,3.17
2023-04-02T07:09:17.098Z,2.43
2023-04-02T07:11:48.919Z,2.60
2023-04-02T07:14:18.173Z,3.30
2023-04-02T07:16:46.001Z,3.67
2023-04-02T07:19:23.264Z,3.13
2023-04-02T07:21:56.015Z,3.40
2023-04-02T07:24:25.023Z,3.50
2023-04-02T07:26:52.127Z,3.83
2023-04-02T07:29:19.980Z,3.50
2023-04-02T07:31:47.484Z,3.50
2023-04-02T07:34:14.660Z,3.20
2023-04-02T07:36:41.924Z,3.37
2023-04-02T07:39:09.093Z,4.10
2023-04-02T07:41:55.663Z,3.30
2023-04-02T07:44:22.898Z,4.03
2023-04-02T07:46:50.316Z,3.80
2023-04-02T07:49:17.492Z,2.90
2023-04-02T07:51:47.975Z,3.20
2023-04-02T07:54:15.046Z,3.90
2023-04-02T07:56:45.069Z,2.87
2023-04-02T07:59:12.216Z,2.97
2023-04-02T08:01:40.260Z,3.17
2023-04-02T08:04:17.472Z,2.17
2023-04-02T08:06:44.746Z,2.33
2023-04-02T08:09:11.944Z,6.13
2023-04-02T08:11:39.180Z,2.90
2023-04-02T08:14:06.563Z,4.50
2023-04-02T08:16:53.127Z,2.23
2023-04-02T08:19:20.813Z,3.30
2023-04-02T08:21:51.579Z,6.80
2023-04-02T08:24:19.687Z,3.47
2023-04-02T08:26:49.109Z,3.40
2023-04-02T08:29:16.653Z,3.30
2023-04-02T08:31:44.012Z,2.63
2023-04-02T08:34:12.039Z,3.13
2023-04-02T08:36:42.066Z,3.23
2023-04-02T08:39:13.115Z,3.20
2023-04-02T08:42:12.878Z,3.03
2023-04-02T08:45:21.169Z,2.40
2023-04-02T08:47:57.183Z,2.20
2023-04-02T08:50:39.411Z,3.57
2023-04-02T08:53:24.523Z,3.00
2023-04-02T08:56:19.079Z,3.70
2023-04-02T08:58:56.601Z,2.30
2023-04-02T09:01:56.721Z,3.10
2023-04-02T09:04:26.975Z,2.10
2023-04-02T09:06:56.738Z,2.20
2023-04-02T09:09:25.315Z,1.73
2023-04-02T09:12:03.081Z,1.50
2023-04-02T09:14:36.046Z,1.63
2023-04-02T09:17:06.506Z,1.20
2023-04-02T09:19:40.590Z,1.90
2023-04-02T09:22:23.431Z,1.50
2023-04-02T09:25:00.554Z,1.23
2023-04-02T09:27:32.518Z,2.20
2023-04-02T09:30:40.117Z,1.93
2023-04-02T09:33:08.092Z,2.97
2023-04-02T09:36:04.584Z,2.20
2023-04-02T09:38:33.301Z,2.50
2023-04-02T09:41:37.057Z,2.07
2023-04-02T09:44:26.885Z,2.33
2023-04-02T09:47:04.066Z,1.60
2023-04-02T09:49:36.822Z,1.27
2023-04-02T09:52:27.668Z,1.60
2023-04-02T09:55:32.318Z,1.77
2023-04-02T09:58:18.560Z,1.60
2023-04-02T10:00:53.547Z,1.90
2023-04-02T10:03:32.728Z,1.73
2023-04-02T10:06:18.397Z,1.63
2023-04-02T10:08:47.167Z,1.90
2023-04-02T10:11:43.568Z,1.50
2023-04-02T10:14:43.828Z,2.90
2023-04-02T10:17:33.201Z,1.70
2023-04-02T10:20:20.240Z,1.57
2023-04-02T10:22:50.638Z,1.57
2023-04-02T10:25:22.077Z,1.30
2023-04-02T10:28:38.626Z,1.47
2023-04-02T10:31:39.224Z,1.00
2023-04-02T10:34:21.730Z,1.80
2023-04-02T10:36:57.841Z,1.43
2023-04-02T10:39:54.109Z,1.80
2023-04-02T10:42:44.826Z,1.70
2023-04-02T10:46:02.961Z,1.57
2023-04-02T10:48:57.782Z,1.70
2023-04-02T10:51:46.632Z,1.70
2023-04-02T10:54:49.720Z,1.33
2023-04-02T10:57:35.285Z,1.53
2023-04-02T11:00:24.808Z,1.60
2023-04-02T11:03:20.333Z,1.50
2023-04-02T11:05:50.358Z,1.30
2023-04-02T11:08:24.154Z,1.30
2023-04-02T11:11:00.846Z,1.67
2023-04-02T11:13:33.696Z,1.90
2023-04-02T11:16:01.301Z,1.77
2023-04-02T11:18:38.996Z,1.27
2023-04-02T11:21:44.881Z,1.87
2023-04-02T11:24:55.580Z,2.23
2023-04-02T11:27:35.666Z,1.80
2023-04-02T11:30:25.922Z,2.23
2023-04-02T11:32:55.187Z,2.67
2023-04-02T11:35:31.359Z,2.17
2023-04-02T11:38:22.622Z,2.60
2023-04-02T11:41:00.740Z,2.53
2023-04-02T11:43:34.205Z,3.07
2023-04-02T11:46:16.587Z,2.80
2023-04-02T11:48:44.234Z,2.77
2023-04-02T11:51:50.809Z,2.40
2023-04-02T11:54:27.233Z,4.00
2023-04-02T11:57:11.167Z,2.80
2023-04-02T12:00:24.616Z,3.57
2023-04-02T12:03:36.771Z,2.50
2023-04-02T12:06:46.990Z,2.60
2023-04-02T12:09:24.365Z,2.10
2023-04-02T12:11:54.480Z,2.07
2023-04-02T12:14:41.867Z,2.77
2023-04-02T12:17:40.379Z,3.97
2023-04-02T12:20:10.651Z,2.00
2023-04-02T12:22:50.968Z,2.50
2023-04-02T12:25:22.079Z,2.00
2023-04-02T12:28:14.497Z,1.47
2023-04-02T12:30:42.172Z,2.17
2023-04-02T12:33:26.512Z,4.50
2023-04-02T12:35:58.766Z,2.83
2023-04-02T12:38:36.925Z,2.03
2023-04-02T12:41:18.173Z,1.73
2023-04-02T12:44:06.520Z,1.93
2023-04-02T12:46:36.450Z,2.20
2023-04-02T12:49:31.642Z,2.30
2023-04-02T12:52:02.969Z,2.13
2023-04-02T12:54:37.071Z,2.40
2023-04-02T12:57:46.052Z,2.80
2023-04-02T13:00:22.401Z,2.20
2023-04-02T13:03:02.955Z,2.00
2023-04-02T13:05:39.651Z,1.90
2023-04-02T13:08:07.321Z,1.70
2023-04-02T13:10:35.360Z,1.60
2023-04-02T13:13:03.965Z,1.20
2023-04-02T13:15:34.656Z,1.50
2023-04-02T13:18:14.021Z,1.77
2023-04-02T13:20:43.441Z,1.77
2023-04-02T13:23:29.645Z,1.47
2023-04-02T13:26:10.045Z,1.70
2023-04-02T13:28:37.421Z,1.40
2023-04-02T13:31:04.679Z,1.60
2023-04-02T13:33:31.873Z,1.53
2023-04-02T13:35:58.939Z,2.10
2023-04-02T13:38:26.320Z,1.83
2023-04-02T13:40:53.515Z,2.00
2023-04-02T13:43:21.346Z,1.23
2023-04-02T13:45:52.482Z,1.67
2023-04-02T13:48:19.900Z,1.07
2023-04-02T13:50:47.251Z,1.40
2023-04-02T13:53:25.168Z,1.10
2023-04-02T13:55:52.720Z,1.73
2023-04-02T13:58:19.961Z,1.30
2023-04-02T14:00:47.981Z,1.37
2023-04-02T14:03:22.435Z,1.27
2023-04-02T14:06:00.894Z,1.60
2023-04-02T14:09:04.829Z,1.30
2023-04-02T14:12:15.700Z,2.30
2023-04-02T14:15:24.384Z,1.30
2023-04-02T14:18:46.720Z,1.20
2023-04-02T14:21:46.205Z,1.40
2023-04-02T14:24:50.185Z,1.20
2023-04-02T14:27:41.401Z,1.47
2023-04-02T14:30:27.125Z,1.50
2023-04-02T14:32:59.669Z,1.10
2023-04-02T14:35:46.706Z,1.30
2023-04-02T14:38:22.665Z,0.90
2023-04-02T14:41:00.309Z,1.10
2023-04-02T14:43:41.008Z,1.10
2023-04-02T14:46:13.043Z,1.47
2023-04-02T14:49:05.339Z,1.40
2023-04-02T14:51:45.534Z,2.20
2023-04-02T14:54:30.046Z,2.40
2023-04-02T14:57:18.895Z,2.40
2023-04-02T15:00:20.690Z,2.47
2023-04-02T15:02:51.758Z,1.90
2023-04-02T15:05:32.719Z,2.17
2023-04-02T15:08:14.077Z,2.80
2023-04-02T15:11:40.723Z,2.43
2023-04-02T15:14:16.606Z,3.23
2023-04-02T15:16:44.990Z,2.80
2023-04-02T15:19:18.942Z,2.27
2023-04-02T15:22:32.841Z,2.37
2023-04-02T15:25:14.022Z,1.40
2023-04-02T15:28:01.446Z,1.53
2023-04-02T15:30:37.818Z,1.37
2023-04-02T15:33:23.579Z,1.60
2023-04-02T15:36:35.399Z,1.43
2023-04-02T15:39:29.196Z,1.00
2023-04-02T15:42:22.129Z,1.00
2023-04-02T15:45:07.235Z,1.10
2023-04-02T15:47:52.565Z,1.47
2023-04-02T15:50:49.449Z,1.03
2023-04-02T15:53:56.044Z,1.27
2023-04-02T15:57:07.399Z,1.77
2023-04-02T16:00:22.632Z,1.73
2023-04-02T16:03:22.528Z,1.67
2023-04-02T16:06:16.827Z,1.60
2023-04-02T16:09:21.819Z,1.33
2023-04-02T16:11:56.738Z,1.43
2023-04-02T16:14:32.271Z,1.57
2023-04-02T16:17:17.556Z,1.50
2023-04-02T16:20:10.776Z,1.73
2023-04-02T16:22:57.267Z,1.70
2023-04-02T16:25:31.979Z,1.60
2023-04-02T16:28:13.448Z,1.10
2023-04-02T16:30:56.004Z,1.50
2023-04-02T16:37:20.265Z,1.73
2023-04-02T16:40:31.378Z,1.30
2023-04-02T16:43:10.101Z,1.40
2023-04-02T16:46:05.404Z,2.60
2023-04-02T16:49:14.266Z,1.57
2023-04-02T16:52:20.531Z,1.90
2023-04-02T16:55:14.797Z,1.80
2023-04-02T16:58:04.414Z,1.37
2023-04-02T17:01:11.779Z,2.07
2023-04-02T17:04:14.811Z,1.47
2023-04-02T17:06:52.871Z,1.13
2023-04-02T17:09:49.667Z,1.20
2023-04-02T17:12:36.725Z,1.50
2023-04-02T17:15:26.666Z,1.87
2023-04-02T17:17:58.940Z,2.00
2023-04-02T17:20:34.934Z,1.17
2023-04-02T17:23:04.743Z,1.60
2023-04-02T17:25:40.014Z,1.60
2023-04-02T17:28:15.991Z,2.00
2023-04-02T17:30:48.416Z,2.50
2023-04-02T17:33:18.995Z,1.63
2023-04-02T17:36:10.987Z,1.93
2023-04-02T17:39:25.747Z,3.10
2023-04-02T17:42:07.234Z,2.83
2023-04-02T17:44:46.308Z,3.43
2023-04-02T17:47:23.103Z,2.50
2023-04-02T17:50:15.076Z,2.37
2023-04-02T17:53:08.465Z,2.03
2023-04-02T17:56:26.715Z,2.80
2023-04-02T17:59:26.515Z,1.93
2023-04-02T18:02:32.828Z,2.43
2023-04-02T18:05:12.333Z,2.13
2023-04-02T18:08:13.559Z,2.40
2023-04-02T18:11:10.612Z,1.90
2023-04-02T18:14:23.069Z,2.30
2023-04-02T18:17:07.071Z,4.17
2023-04-02T18:20:02.209Z,2.60
2023-04-02T18:22:49.740Z,2.17
2023-04-02T18:25:40.633Z,1.83
2023-04-02T18:28:30.087Z,3.40
2023-04-02T18:31:43.026Z,1.40
2023-04-02T18:34:32.221Z,2.17
2023-04-02T18:37:41.830Z,2.40
2023-04-02T18:40:22.292Z,2.57
2023-04-02T18:43:16.754Z,2.10
2023-04-02T18:46:25.654Z,3.10
2023-04-02T18:48:59.629Z,2.23
2023-04-02T18:51:32.809Z,2.70
2023-04-02T18:54:12.547Z,3.20
2023-04-02T18:56:40.611Z,3.30
2023-04-02T18:59:33.182Z,2.60
2023-04-02T19:02:29.580Z,2.37
2023-04-02T19:05:15.679Z,2.30
2023-04-02T19:07:45.063Z,2.53
2023-04-02T19:10:38.794Z,2.93
2023-04-02T19:13:17.206Z,2.97
2023-04-02T19:16:21.987Z,2.63
2023-04-02T19:19:20.636Z,2.30
2023-04-02T19:21:56.677Z,2.23
2023-04-02T19:25:06.448Z,2.33
2023-04-02T19:28:33.899Z,2.20
2023-04-02T19:31:31.716Z,1.97
2023-04-02T19:34:19.704Z,2.03
2023-04-02T19:37:46.333Z,2.80
2023-04-02T19:40:56.936Z,2.33
2023-04-02T19:43:24.455Z,2.40
2023-04-02T19:45:54.498Z,2.53
2023-04-02T19:48:42.861Z,2.93
2023-04-02T19:51:10.155Z,2.90
2023-04-02T19:53:37.915Z,2.33
2023-04-02T19:56:05.164Z,2.53
2023-04-02T19:58:35.485Z,2.50
2023-04-02T20:01:04.010Z,2.10
2023-04-02T20:03:32.102Z,1.80
2023-04-02T20:06:00.243Z,2.70
2023-04-02T20:08:28.166Z,2.13
2023-04-02T20:10:58.646Z,2.20
2023-04-02T20:13:26.246Z,2.73
2023-04-02T20:15:53.692Z,2.40
2023-04-02T20:18:21.048Z,3.40
2023-04-02T20:20:49.039Z,2.10
2023-04-02T20:23:17.355Z,2.67
2023-04-02T20:25:46.924Z,2.43
2023-04-02T20:28:14.407Z,2.47
2023-04-02T20:30:42.158Z,2.60
2023-04-02T20:33:09.690Z,2.40
2023-04-02T20:35:37.814Z,2.40
2023-04-02T20:38:06.856Z,1.70
2023-04-02T20:40:34.186Z,1.90
2023-04-02T20:43:01.807Z,2.73
2023-04-02T20:45:29.595Z,2.37
2023-04-02T20:47:57.632Z,1.90
2023-04-02T20:50:25.095Z,1.70
2023-04-02T20:52:52.247Z,1.67
2023-04-02T20:55:19.489Z,1.70
2023-04-02T20:57:47.602Z,1.50
2023-04-02T21:00:15.341Z,1.57
2023-04-02T21:02:42.534Z,1.80
2023-04-02T21:05:12.706Z,2.53
2023-04-02T21:07:40.333Z,1.90
2023-04-02T21:10:07.808Z,1.30
2023-04-02T21:12:34.887Z,1.20
2023-04-02T21:15:02.924Z,1.43
2023-04-02T21:17:30.532Z,1.30
2023-04-02T21:19:57.626Z,1.30
2023-04-02T21:22:25.176Z,1.27
2023-04-02T21:24:52.437Z,1.80
2023-04-02T21:27:19.689Z,1.57
2023-04-02T21:29:46.754Z,1.40
2023-04-02T21:32:21.368Z,1.10
2023-04-02T21:34:49.460Z,1.40
2023-04-02T21:37:16.632Z,1.20
2023-04-02T21:39:43.899Z,1.00
2023-04-02T21:42:11.708Z,1.03
2023-04-02T21:44:39.073Z,1.10
2023-04-02T21:47:06.538Z,1.23
2023-04-02T21:49:33.838Z,1.57
2023-04-02T21:52:00.907Z,0.90
2023-04-02T21:54:28.274Z,1.10
2023-04-02T21:56:55.381Z,1.37
2023-04-02T21:59:22.541Z,1.13
2023-04-02T22:01:52.110Z,0.80
2023-04-02T22:04:25.415Z,0.90
2023-04-02T22:06:53.517Z,1.40
2023-04-02T22:09:24.758Z,0.90
2023-04-02T22:11:55.584Z,1.30
2023-04-02T22:14:23.131Z,1.37
2023-04-02T22:16:50.971Z,1.00
2023-04-02T22:19:18.353Z,1.40
2023-04-02T22:21:46.370Z,1.47
2023-04-02T22:24:18.659Z,0.80
2023-04-02T22:26:46.532Z,1.30
2023-04-02T22:29:13.962Z,0.90
2023-04-02T22:31:41.685Z,0.90
2023-04-02T22:34:09.274Z,1.30
2023-04-02T22:36:36.593Z,0.80
2023-04-02T22:39:05.615Z,0.90
2023-04-02T22:41:33.474Z,1.27
2023-04-02T22:44:01.667Z,1.63
2023-04-02T22:46:30.198Z,1.33
2023-04-02T22:48:58.166Z,1.17
2023-04-02T22:51:27.681Z,0.83
2023-04-02T22:53:56.586Z,0.87
2023-04-02T22:56:31.702Z,1.30
2023-04-02T22:58:59.380Z,1.37
2023-04-02T23:01:36.653Z,1.03
2023-04-02T23:04:05.174Z,2.17
2023-04-02T23:06:32.587Z,1.30
2023-04-02T23:08:59.876Z,1.53
2023-04-02T23:11:28.645Z,1.30
2023-04-02T23:13:57.622Z,1.03
2023-04-02T23:16:28.003Z,1.20
2023-04-02T23:18:56.572Z,1.00
2023-04-02T23:21:24.864Z,1.27
2023-04-02T23:23:52.512Z,1.30
2023-04-02T23:26:27.202Z,0.93
2023-04-02T23:28:54.298Z,1.27
2023-04-02T23:31:23.125Z,1.10
2023-04-02T23:33:52.445Z,0.87
2023-04-02T23:36:31.870Z,1.13
2023-04-02T23:39:02.802Z,1.07
2023-04-02T23:41:31.639Z,1.40
2023-04-02T23:43:59.436Z,1.20
2023-04-02T23:46:27.670Z,1.20
2023-04-02T23:48:56.196Z,1.50
2023-04-02T23:51:24.655Z,1.07
2023-04-02T23:53:53.537Z,0.90
2023-04-02T23:56:21.779Z,1.00
2023-04-02T23:58:50.372Z,1.43
